Time;durP1;ratioP1;P1;durP2;ratioP2;P2;SDS_P1;SDS_P2;PMS_P1;PMS_P2;Temp;Humidity;BMP_temperature;BMP_pressure;BME280_temperature;BME280_humidity;BME280_pressure;Samples;Min_cycle;Max_cycle;Signal;HPM_P1;HPM_P2
2021/07/08 00:01:10;;;;;;;23.25;10.00;;;;;;;22.99;62.44;94171.44;5056964;28;20036;-87
2021/07/08 00:03:35;;;;;;;11.95;10.55;;;;;;;22.65;62.46;94141.50;5058717;28;20505;-88
2021/07/08 00:06:02;;;;;;;10.77;9.32;;;;;;;22.80;62.49;94164.16;5053424;28;20485;-86
2021/07/08 00:08:28;;;;;;;13.30;10.38;;;;;;;22.81;62.83;94182.66;5055891;28;20041;-86
2021/07/08 00:10:55;;;;;;;10.57;9.57;;;;;;;22.74;63.31;94165.56;5054137;28;20054;-86
2021/07/08 00:13:25;;;;;;;10.95;9.82;;;;;;;22.44;64.37;94168.78;5056775;28;20036;-88
2021/07/08 00:15:52;;;;;;;11.55;10.10;;;;;;;22.53;65.22;94195.50;5050204;28;20025;-88
2021/07/08 00:18:20;;;;;;;12.35;11.10;;;;;;;22.34;65.92;94184.72;5058352;28;20025;-87
2021/07/08 00:20:46;;;;;;;11.27;10.20;;;;;;;22.17;66.30;94167.09;5053875;28;20115;-87
2021/07/08 00:23:13;;;;;;;15.32;10.50;;;;;;;22.35;66.61;94203.22;5054406;28;20596;-87
2021/07/08 00:25:39;;;;;;;12.80;11.45;;;;;;;22.34;66.47;94190.13;5040506;28;20044;-87
2021/07/08 00:28:07;;;;;;;14.18;11.18;;;;;;;22.05;67.37;94175.25;5045659;28;21833;-86
2021/07/08 00:30:33;;;;;;;15.27;11.40;;;;;;;22.13;67.36;94190.44;5055879;28;20032;-85
2021/07/08 00:32:58;;;;;;;11.90;10.52;;;;;;;22.15;67.12;94203.53;5055339;28;20546;-87
2021/07/08 00:35:24;;;;;;;13.60;10.90;;;;;;;22.08;66.53;94187.25;5050489;28;20058;-87
2021/07/08 00:37:50;;;;;;;14.02;11.05;;;;;;;21.88;66.59;94171.03;5053832;28;20142;-87
2021/07/08 00:40:19;;;;;;;17.00;11.93;;;;;;;22.11;66.87;94206.16;5054363;28;20509;-88
2021/07/08 00:42:45;;;;;;;12.48;11.10;;;;;;;22.10;66.68;94206.50;5054439;28;21455;-88
2021/07/08 00:45:15;;;;;;;16.48;11.20;;;;;;;21.97;67.39;94206.63;5053748;28;20514;-88
2021/07/08 00:47:41;;;;;;;14.23;12.10;;;;;;;21.79;67.49;94165.06;5049647;28;20119;-87
2021/07/08 00:50:10;;;;;;;11.80;10.70;;;;;;;21.83;68.04;94195.50;5055536;28;20044;-87
2021/07/08 00:52:36;;;;;;;13.23;11.85;;;;;;;21.80;68.38;94192.72;5052688;28;20036;-86
2021/07/08 00:55:03;;;;;;;14.43;12.70;;;;;;;21.89;68.00;94198.72;5055439;28;20025;-87
2021/07/08 00:57:29;;;;;;;12.90;11.50;;;;;;;21.51;68.65;94167.06;5055635;28;20052;-86
2021/07/08 00:59:54;;;;;;;13.10;11.45;;;;;;;21.61;68.31;94169.22;5050802;28;20400;-87
2021/07/08 01:02:21;;;;;;;13.35;12.05;;;;;;;21.50;67.73;94131.31;5053393;28;20037;-87
2021/07/08 01:04:48;;;;;;;14.98;11.95;;;;;;;21.82;67.80;94196.63;5055060;28;20045;-87
2021/07/08 01:07:15;;;;;;;13.63;11.75;;;;;;;21.58;68.47;94170.72;5054551;28;20040;-87
2021/07/08 01:09:41;;;;;;;13.05;11.73;;;;;;;21.74;68.33;94191.44;5057229;28;20087;-87
2021/07/08 01:12:08;;;;;;;14.25;12.75;;;;;;;21.42;68.91;94161.09;5051892;28;20183;-88
2021/07/08 01:14:34;;;;;;;16.80;11.75;;;;;;;21.40;69.04;94163.34;5053007;28;20500;-87
2021/07/08 01:17:00;;;;;;;12.95;11.40;;;;;;;21.55;69.24;94202.91;5054043;28;20051;-86
2021/07/08 01:19:27;;;;;;;12.88;11.48;;;;;;;21.30;68.44;94150.44;5050022;28;20036;-87
2021/07/08 01:21:53;;;;;;;13.52;11.10;;;;;;;21.62;68.17;94203.06;5053936;28;20152;-87
2021/07/08 01:24:19;;;;;;;14.88;12.35;;;;;;;21.55;68.31;94202.91;5053735;28;20081;-87
2021/07/08 01:26:44;;;;;;;13.70;12.18;;;;;;;21.24;69.24;94173.31;5054767;28;20132;-87
2021/07/08 01:29:10;;;;;;;14.32;10.48;;;;;;;21.20;69.35;94175.13;5051750;28;20732;-87
2021/07/08 01:31:36;;;;;;;15.27;13.00;;;;;;;21.14;69.46;94172.69;5054835;28;20038;-87
2021/07/08 01:34:01;;;;;;;16.55;12.10;;;;;;;21.26;69.83;94196.03;5051996;28;20025;-87
2021/07/08 01:36:27;;;;;;;20.02;12.73;;;;;;;21.14;70.14;94183.44;5055848;28;20027;-86
2021/07/08 01:38:52;;;;;;;25.00;13.07;;;;;;;20.99;69.86;94159.22;5051804;28;20086;-87
2021/07/08 01:41:18;;;;;;;29.88;14.57;;;;;;;21.26;69.85;94200.63;5053705;28;20032;-87
2021/07/08 01:43:44;;;;;;;30.25;14.10;;;;;;;21.20;69.70;94200.09;5051806;28;20045;-87
2021/07/08 01:46:13;;;;;;;25.77;14.18;;;;;;;21.12;70.08;94201.78;5054726;28;20496;-86
2021/07/08 01:48:40;;;;;;;21.10;13.07;;;;;;;21.16;69.75;94202.69;5056069;28;20033;-86
2021/07/08 01:51:25;;;;;;;16.00;11.65;;;;;;;21.22;69.80;94211.28;5053182;28;21071;-87
2021/07/08 01:53:51;;;;;;;15.48;12.20;;;;;;;21.16;70.11;94212.66;5065757;28;20630;-87
2021/07/08 01:56:17;;;;;;;15.45;12.57;;;;;;;21.05;70.58;94207.00;5051515;28;20037;-88
2021/07/08 01:58:44;;;;;;;15.15;11.77;;;;;;;20.50;71.38;94150.59;5056710;28;20410;-87
2021/07/08 02:01:09;;;;;;;13.95;11.43;;;;;;;20.77;71.78;94196.25;5054451;28;20489;-86
2021/07/08 02:03:35;;;;;;;14.93;13.25;;;;;;;20.83;71.61;94191.41;5057233;28;20031;-86
2021/07/08 02:06:01;;;;;;;13.63;12.20;;;;;;;20.86;72.02;94206.06;5056009;28;20451;-87
2021/07/08 02:08:26;;;;;;;14.15;12.23;;;;;;;20.99;71.22;94208.34;5058238;28;20151;-87
2021/07/08 02:10:52;;;;;;;20.58;13.05;;;;;;;20.52;71.50;94153.75;5054131;28;20363;-87
2021/07/08 02:13:17;;;;;;;15.73;12.25;;;;;;;20.81;71.87;94198.25;5053634;28;20036;-88
2021/07/08 02:15:43;;;;;;;13.95;11.85;;;;;;;20.81;72.30;94212.47;5073631;28;20024;-88
2021/07/08 02:18:09;;;;;;;14.77;13.18;;;;;;;20.61;72.48;94197.34;5057766;28;20048;-88
2021/07/08 02:20:35;;;;;;;13.50;12.25;;;;;;;20.76;72.66;94215.41;5057126;28;20044;-88
2021/07/08 02:23:01;;;;;;;16.60;12.80;;;;;;;20.79;72.74;94212.03;5055364;28;20055;-88
2021/07/08 02:25:27;;;;;;;12.75;11.45;;;;;;;20.89;71.86;94203.47;5057255;28;20044;-88
2021/07/08 02:27:53;;;;;;;17.50;12.60;;;;;;;20.65;72.65;94199.00;5058557;28;20026;-87
2021/07/08 02:30:24;;;;;;;15.75;12.80;;;;;;;20.59;72.92;94213.00;5057697;28;20503;-88
2021/07/08 02:32:52;;;;;;;14.48;12.52;;;;;;;20.24;72.71;94151.00;5053426;28;20707;-86
2021/07/08 02:35:18;;;;;;;14.93;13.27;;;;;;;20.37;72.88;94181.31;5056648;28;20397;-87
2021/07/08 02:37:45;;;;;;;14.38;12.88;;;;;;;20.37;73.04;94170.56;5055091;28;20199;-88
2021/07/08 02:40:18;;;;;;;15.88;14.30;;;;;;;20.28;73.79;94168.00;5056563;28;20044;-88
2021/07/08 02:42:51;;;;;;;17.15;14.40;;;;;;;20.23;73.68;94158.25;5056680;28;20031;-88
2021/07/08 02:45:23;;;;;;;15.52;13.95;;;;;;;20.65;73.59;94203.59;5073608;28;20553;-88
2021/07/08 02:47:49;;;;;;;15.63;12.85;;;;;;;20.42;73.14;94171.13;5052220;28;20047;-88
2021/07/08 02:50:15;;;;;;;17.10;12.93;;;;;;;20.72;72.93;94201.84;5059166;28;20037;-88
2021/07/08 02:52:42;;;;;;;18.58;12.50;;;;;;;20.76;72.77;94215.41;5051925;28;20512;-88
2021/07/08 02:55:08;;;;;;;12.32;11.00;;;;;;;20.80;72.34;94216.28;5055589;28;20492;-88
2021/07/08 02:57:34;;;;;;;12.43;11.23;;;;;;;20.55;72.14;94183.38;5057457;28;20062;-88
2021/07/08 02:59:59;;;;;;;14.13;12.73;;;;;;;20.71;72.30;94219.13;5055626;28;20100;-87
2021/07/08 03:02:25;;;;;;;20.40;13.90;;;;;;;20.41;72.82;94187.56;5056705;28;20132;-88
2021/07/08 03:04:50;;;;;;;16.58;12.88;;;;;;;20.65;72.80;94219.69;5057056;28;20052;-88
2021/07/08 03:07:21;;;;;;;15.10;11.93;;;;;;;20.56;72.34;94194.88;5072208;28;20663;-89
2021/07/08 03:09:47;;;;;;;15.25;12.15;;;;;;;20.63;72.52;94211.97;5057290;28;20120;-89
2021/07/08 03:12:13;;;;;;;13.75;11.63;;;;;;;20.42;71.82;94167.66;5055286;28;20859;-88
2021/07/08 03:14:38;;;;;;;16.13;12.75;;;;;;;20.74;72.99;94233.75;5056744;28;20055;-89
2021/07/08 03:17:04;;;;;;;13.77;12.45;;;;;;;20.83;72.58;94212.91;5055914;28;20123;-87
2021/07/08 03:19:29;;;;;;;16.35;11.60;;;;;;;21.19;71.25;94230.78;5053529;28;21279;-89
2021/07/08 03:21:55;;;;;;;15.25;12.13;;;;;;;21.48;70.26;94235.00;5055026;28;20032;-88
2021/07/08 03:24:20;;;;;;;13.60;11.75;;;;;;;21.56;69.36;94199.06;5056469;28;20050;-87
2021/07/08 03:26:46;;;;;;;13.63;11.38;;;;;;;22.05;68.40;94237.16;5071117;28;20479;-89
2021/07/08 03:29:11;;;;;;;13.32;10.68;;;;;;;22.16;67.66;94237.41;5054141;28;20040;-88
2021/07/08 03:31:36;;;;;;;18.02;10.75;;;;;;;22.61;66.18;94234.94;5054028;28;20032;-88
2021/07/08 03:34:02;;;;;;;16.45;10.95;;;;;;;22.92;65.07;94238.69;5047026;28;20113;-88
2021/07/08 03:36:27;;;;;;;14.10;11.18;;;;;;;23.24;63.42;94231.97;5057275;28;20017;-88
2021/07/08 03:38:53;;;;;;;17.17;10.45;;;;;;;23.44;61.84;94225.41;5054397;28;20462;-87
2021/07/08 03:41:18;;;;;;;15.98;9.48;;;;;;;23.79;61.08;94236.06;5054564;28;20048;-87
2021/07/08 03:43:44;;;;;;;12.95;10.05;;;;;;;24.02;60.00;94211.72;5053472;28;20041;-88
2021/07/08 03:46:10;;;;;;;13.52;11.05;;;;;;;24.33;58.34;94184.44;5055716;28;20092;-88
2021/07/08 03:48:36;;;;;;;12.18;10.43;;;;;;;24.93;56.54;94196.00;5054576;28;20075;-88
2021/07/08 03:51:02;;;;;;;14.38;10.07;;;;;;;25.54;55.12;94218.28;5070777;28;20448;-88
2021/07/08 03:53:28;;;;;;;11.52;10.43;;;;;;;25.96;53.92;94207.06;5056806;28;20032;-88
2021/07/08 03:55:53;;;;;;;10.20;9.20;;;;;;;26.68;52.07;94242.41;5069093;28;20041;-88
2021/07/08 03:58:19;;;;;;;12.60;10.25;;;;;;;26.75;51.65;94193.63;5057007;28;20071;-88
2021/07/08 04:00:45;;;;;;;11.55;9.95;;;;;;;27.71;50.36;94237.41;5072382;28;20489;-88
2021/07/08 04:03:15;;;;;;;11.35;9.68;;;;;;;27.93;48.91;94195.50;5055530;28;20082;-88
2021/07/08 04:05:43;;;;;;;13.40;10.05;;;;;;;28.48;47.93;94235.84;5054552;28;20072;-88
2021/07/08 04:08:09;;;;;;;10.80;9.85;;;;;;;29.11;46.10;94251.22;5053892;28;20028;-88
2021/07/08 04:10:37;;;;;;;13.05;10.45;;;;;;;29.43;45.96;94246.44;5053526;28;20167;-88
2021/07/08 04:13:09;;;;;;;12.20;9.90;;;;;;;29.85;45.20;94250.09;5056637;28;20055;-89
2021/07/08 04:15:35;;;;;;;12.40;9.55;;;;;;;30.33;44.10;94250.13;5058884;28;20028;-88
2021/07/08 04:18:03;;;;;;;14.45;9.77;;;;;;;30.63;43.32;94249.50;5054736;28;20094;-88
2021/07/08 04:20:30;;;;;;;31.95;10.15;;;;;;;30.65;42.88;94230.75;5051885;28;20040;-89
2021/07/08 04:22:56;;;;;;;10.93;9.82;;;;;;;30.55;42.58;94208.63;5053347;28;20049;-89
2021/07/08 04:25:22;;;;;;;10.68;9.57;;;;;;;30.64;42.42;94218.31;5054881;28;20040;-88
2021/07/08 04:27:48;;;;;;;10.68;9.57;;;;;;;30.96;41.81;94226.91;5069103;28;20393;-88
2021/07/08 04:30:17;;;;;;;13.15;10.50;;;;;;;31.45;41.28;94244.66;5056845;28;20036;-89
2021/07/08 04:32:43;;;;;;;11.95;10.10;;;;;;;31.80;40.98;94243.41;5046165;28;20083;-88
2021/07/08 04:35:10;;;;;;;13.80;9.77;;;;;;;32.27;39.86;94238.03;5053866;28;20404;-87
2021/07/08 04:37:41;;;;;;;11.00;9.48;;;;;;;32.89;38.49;94243.56;5048138;28;20497;-87
2021/07/08 04:40:14;;;;;;;11.73;9.27;;;;;;;33.33;38.20;94242.34;5054987;28;20378;-88
2021/07/08 04:42:40;;;;;;;9.38;8.13;;;;;;;33.68;37.25;94224.41;5051441;28;20036;-88
2021/07/08 04:45:08;;;;;;;10.98;9.57;;;;;;;33.84;36.96;94232.66;5054039;28;20119;-90
2021/07/08 04:47:36;;;;;;;12.93;9.60;;;;;;;34.07;36.62;94250.91;5050968;28;20044;-89
2021/07/08 04:50:04;;;;;;;13.55;10.68;;;;;;;33.71;36.47;94217.31;5051581;28;20047;-89
2021/07/08 04:52:30;;;;;;;11.35;10.23;;;;;;;33.65;36.38;94266.34;5051274;28;20540;-91
2021/07/08 04:54:56;;;;;;;13.70;10.75;;;;;;;33.59;37.05;94264.50;5050114;28;20028;-88
2021/07/08 04:57:22;;;;;;;16.73;11.70;;;;;;;33.85;36.22;94272.59;5054679;28;20085;-89
2021/07/08 04:59:47;;;;;;;14.82;12.23;;;;;;;33.62;35.59;94226.09;5067873;28;20111;-89
2021/07/08 05:02:14;;;;;;;14.48;11.10;;;;;;;33.98;35.77;94269.94;5048398;28;20076;-86
2021/07/08 05:04:40;;;;;;;13.55;12.13;;;;;;;33.87;35.52;94272.91;5048767;28;20044;-89
2021/07/08 05:07:05;;;;;;;13.13;11.27;;;;;;;33.99;35.63;94276.19;5052647;28;26296;-89
2021/07/08 05:09:30;;;;;;;19.55;13.05;;;;;;;33.96;35.40;94261.38;5054872;28;20037;-90
2021/07/08 05:11:56;;;;;;;14.02;12.45;;;;;;;34.13;35.11;94237.47;5049886;28;20044;-89
2021/07/08 05:14:21;;;;;;;14.48;11.77;;;;;;;34.41;34.74;94269.72;5049822;28;20037;-88
2021/07/08 05:16:47;;;;;;;18.63;13.13;;;;;;;34.83;34.27;94289.88;5054340;28;20389;-89
2021/07/08 05:19:12;;;;;;;14.52;12.10;;;;;;;35.04;34.15;94266.59;5051280;28;20044;-89
2021/07/08 05:21:58;;;;;;;18.20;11.20;;;;;;;35.85;32.86;94264.28;5056288;28;20179;-88
2021/07/08 05:24:25;;;;;;;16.90;11.27;;;;;;;36.17;32.37;94235.81;5048762;28;20032;-87
2021/07/08 05:26:51;;;;;;;20.52;11.57;;;;;;;36.38;32.33;94268.16;5052033;28;20029;-89
2021/07/08 05:29:17;;;;;;;12.32;10.93;;;;;;;36.69;31.32;94270.31;5048668;28;20512;-89
2021/07/08 05:31:42;;;;;;;13.52;11.68;;;;;;;36.84;30.96;94282.41;5053626;28;20036;-89
2021/07/08 05:34:10;;;;;;;17.48;11.35;;;;;;;37.16;30.24;94282.09;5054555;28;20036;-92
2021/07/08 05:36:36;;;;;;;16.67;11.68;;;;;;;36.15;31.72;94259.47;5059977;28;20519;-91
2021/07/08 05:39:03;;;;;;;14.32;12.88;;;;;;;36.55;31.68;94304.59;5055785;28;20147;-92
2021/07/08 05:41:28;;;;;;;17.40;11.95;;;;;;;35.53;32.90;94262.44;5058310;28;20102;-89
2021/07/08 05:43:54;;;;;;;18.42;12.52;;;;;;;35.13;33.11;94270.25;5054765;28;20600;-89
2021/07/08 05:46:20;;;;;;;15.82;12.55;;;;;;;35.12;33.67;94285.19;5056486;28;20033;-90
2021/07/08 05:48:45;;;;;;;14.73;12.23;;;;;;;35.33;33.50;94299.56;5063124;28;20105;-91
2021/07/08 05:51:12;;;;;;;14.07;12.35;;;;;;;35.25;33.97;94320.19;5056671;28;20987;-91
2021/07/08 05:53:38;;;;;;;15.93;11.20;;;;;;;34.89;34.51;94312.09;5074208;28;20115;-89
2021/07/08 05:56:04;;;;;;;16.30;12.93;;;;;;;34.93;34.04;94318.28;5053431;28;20046;-89
2021/07/08 05:58:30;;;;;;;18.15;10.95;;;;;;;34.71;34.17;94277.63;5074067;28;20064;-88
2021/07/08 06:00:56;;;;;;;15.23;11.77;;;;;;;35.23;33.43;94300.63;5054904;28;20037;-90
2021/07/08 06:03:23;;;;;;;16.83;13.68;;;;;;;35.17;33.23;94300.41;5062470;28;20020;-92
2021/07/08 06:05:49;;;;;;;16.00;12.18;;;;;;;35.96;32.50;94327.25;5054676;28;20130;-88
2021/07/08 06:08:14;;;;;;;13.75;11.55;;;;;;;36.10;32.54;94307.53;5051558;28;20139;-88
2021/07/08 06:10:41;;;;;;;15.88;12.40;;;;;;;36.74;30.95;94283.53;5053341;28;20075;-89
2021/07/08 06:13:08;;;;;;;14.90;11.85;;;;;;;37.41;30.70;94297.75;5054236;28;20152;-87
2021/07/08 06:15:33;;;;;;;13.10;11.18;;;;;;;37.91;29.74;94324.28;5055765;28;20040;-88
2021/07/08 06:17:59;;;;;;;12.18;10.55;;;;;;;37.60;30.34;94309.69;5054220;28;20048;-87
2021/07/08 06:20:29;;;;;;;12.75;11.45;;;;;;;37.72;29.98;94287.56;5045582;28;20068;-88
2021/07/08 06:22:55;;;;;;;13.20;11.40;;;;;;;38.46;29.50;94313.56;5052004;28;20074;-88
2021/07/08 06:25:20;;;;;;;12.93;10.25;;;;;;;39.51;28.90;94324.16;5056267;28;20048;-87
2021/07/08 06:27:46;;;;;;;23.17;12.45;;;;;;;39.96;26.94;94317.03;5053728;28;20090;-86
2021/07/08 06:30:12;;;;;;;12.75;10.85;;;;;;;39.69;27.44;94313.06;5059818;28;20025;-86
2021/07/08 06:32:39;;;;;;;16.60;11.73;;;;;;;39.18;28.21;94295.56;5051086;28;20033;-86
2021/07/08 06:35:07;;;;;;;20.98;12.07;;;;;;;39.20;28.56;94329.81;5054106;28;20060;-86
2021/07/08 06:37:33;;;;;;;12.70;10.70;;;;;;;40.04;27.64;94321.00;5053047;28;20040;-86
2021/07/08 06:39:58;;;;;;;13.60;10.52;;;;;;;40.72;26.98;94335.25;5053917;28;20125;-85
2021/07/08 06:42:24;;;;;;;14.15;11.63;;;;;;;40.81;26.50;94316.56;5055906;28;20032;-89
2021/07/08 06:44:49;;;;;;;16.55;11.32;;;;;;;40.30;26.75;94310.34;5055686;28;20174;-86
2021/07/08 06:47:17;;;;;;;13.88;11.10;;;;;;;39.61;27.60;94308.31;5054434;28;20055;-87
2021/07/08 06:49:44;;;;;;;13.88;11.48;;;;;;;39.62;27.74;94332.75;5053846;28;20610;-86
2021/07/08 06:52:16;;;;;;;19.35;12.57;;;;;;;39.69;27.69;94329.66;5052071;28;20598;-85
2021/07/08 06:54:41;;;;;;;14.98;12.23;;;;;;;39.32;28.31;94317.09;5057016;28;20480;-85
2021/07/08 06:57:07;;;;;;;15.43;11.02;;;;;;;39.30;28.12;94331.34;5054108;28;20043;-89
2021/07/08 06:59:32;;;;;;;12.38;10.38;;;;;;;39.35;28.61;94308.66;5056515;28;20441;-86
2021/07/08 07:01:58;;;;;;;14.13;10.63;;;;;;;39.86;27.65;94343.19;5057334;28;20048;-86
2021/07/08 07:04:25;;;;;;;14.85;10.73;;;;;;;39.66;27.45;94291.09;5054809;28;20393;-89
2021/07/08 07:06:51;;;;;;;18.63;9.75;;;;;;;40.40;27.18;94323.69;5069822;28;20116;-87
2021/07/08 07:09:16;;;;;;;15.27;9.68;;;;;;;40.93;26.53;94323.88;5058420;28;20036;-87
2021/07/08 07:11:42;;;;;;;16.38;11.02;;;;;;;40.31;27.48;94334.03;5052222;28;20064;-87
2021/07/08 07:14:07;;;;;;;11.93;9.27;;;;;;;40.47;26.85;94334.41;5052752;28;20128;-87
2021/07/08 07:16:33;;;;;;;12.77;10.95;;;;;;;40.38;26.44;94317.06;5054435;28;20044;-83
2021/07/08 07:18:59;;;;;;;11.70;9.18;;;;;;;40.42;26.32;94290.72;5055747;28;20083;-86
2021/07/08 07:21:24;;;;;;;10.85;8.80;;;;;;;40.63;26.63;94303.59;5056872;28;20032;-87
2021/07/08 07:23:50;;;;;;;12.25;9.15;;;;;;;41.08;25.74;94329.50;5047439;28;20067;-85
2021/07/08 07:26:20;;;;;;;11.60;8.98;;;;;;;41.08;25.37;94302.56;5047617;28;20051;-87
2021/07/08 07:28:45;;;;;;;12.48;8.77;;;;;;;41.34;25.14;94313.91;5051594;28;20586;-87
2021/07/08 07:31:10;;;;;;;12.80;9.40;;;;;;;41.46;25.23;94318.44;5053600;28;20071;-87
2021/07/08 07:33:36;;;;;;;11.88;8.07;;;;;;;41.73;24.51;94328.53;5054293;28;20024;-87
2021/07/08 07:36:03;;;;;;;13.13;8.90;;;;;;;41.82;24.96;94294.38;5051559;28;20512;-85
2021/07/08 07:38:28;;;;;;;9.95;7.55;;;;;;;42.28;23.64;94309.31;5056660;28;22705;-86
2021/07/08 07:40:55;;;;;;;11.98;8.40;;;;;;;42.37;24.37;94291.03;5049299;28;20513;-87
2021/07/08 07:43:23;;;;;;;9.20;7.07;;;;;;;43.16;23.71;94323.00;5053895;28;20129;-90
2021/07/08 07:45:49;;;;;;;9.18;7.22;;;;;;;43.80;22.79;94310.06;5049428;28;20481;-86
2021/07/08 07:48:15;;;;;;;8.98;7.75;;;;;;;44.10;22.35;94327.31;5052550;28;20065;-86
2021/07/08 07:50:40;;;;;;;9.82;7.80;;;;;;;44.22;22.26;94337.31;5050343;28;20995;-85
2021/07/08 07:53:06;;;;;;;9.63;7.20;;;;;;;44.88;21.65;94315.53;5066020;28;20048;-87
2021/07/08 07:55:32;;;;;;;9.85;6.57;;;;;;;44.69;21.39;94306.03;5039892;28;20039;-88
2021/07/08 07:58:01;;;;;;;6.90;6.30;;;;;;;44.52;21.57;94304.38;5052249;28;20033;-89
2021/07/08 08:00:28;;;;;;;17.50;6.75;;;;;;;44.08;22.22;94332.63;5053194;28;20083;-86
2021/07/08 08:02:54;;;;;;;9.00;6.90;;;;;;;43.69;22.21;94313.50;5068856;28;20446;-84
2021/07/08 08:05:34;;;;;;;12.75;6.72;;;;;;;44.26;21.75;94321.16;5051955;28;20080;-85
2021/07/08 08:08:42;;;;;;;9.90;6.55;;;;;;;43.48;22.30;94331.50;5054162;28;20044;-86
2021/07/08 08:10:50;;;;;;;7.03;6.35;;;;;;;43.02;22.10;94346.03;5041844;28;20052;-85
2021/07/08 08:13:16;;;;;;;9.70;6.70;;;;;;;43.18;21.68;94325.28;5052438;28;20587;-89
2021/07/08 08:15:44;;;;;;;9.38;6.50;;;;;;;43.53;21.11;94311.31;5052842;28;20028;-88
2021/07/08 08:18:10;;;;;;;7.25;6.40;;;;;;;43.10;21.20;94322.19;5054240;28;20156;-85
2021/07/08 08:20:35;;;;;;;8.98;6.55;;;;;;;44.01;19.97;94323.47;5053404;28;20044;-89
2021/07/08 08:23:04;;;;;;;8.75;6.28;;;;;;;43.85;21.04;94307.31;5054331;28;20040;-88
2021/07/08 08:25:30;;;;;;;8.10;5.53;;;;;;;44.21;20.41;94319.06;5051330;28;20047;-85
2021/07/08 08:27:56;;;;;;;7.85;6.28;;;;;;;44.26;20.76;94321.94;5050214;28;20119;-86
2021/07/08 08:30:22;;;;;;;9.77;6.25;;;;;;;43.93;21.35;94327.19;5071601;28;20054;-85
2021/07/08 08:32:47;;;;;;;8.00;5.85;;;;;;;43.70;20.62;94328.94;5053147;28;20051;-83
2021/07/08 08:35:13;;;;;;;9.57;6.30;;;;;;;43.42;21.97;94327.84;5068955;28;20484;-83
2021/07/08 08:37:41;;;;;;;8.32;6.53;;;;;;;43.27;21.98;94318.81;5049614;28;20036;-89
2021/07/08 08:40:08;;;;;;;7.65;6.25;;;;;;;43.23;22.25;94323.84;5053206;28;20670;-83
2021/07/08 08:42:34;;;;;;;6.97;6.28;;;;;;;42.62;22.30;94332.81;5051931;28;20032;-84
2021/07/08 08:44:59;;;;;;;8.85;6.65;;;;;;;41.50;23.22;94319.03;5052421;28;20455;-89
2021/07/08 08:47:25;;;;;;;7.85;7.15;;;;;;;41.63;23.66;94313.22;5052391;28;20484;-86
2021/07/08 08:49:55;;;;;;;11.70;7.25;;;;;;;41.54;23.36;94335.50;5050817;28;20408;-87
2021/07/08 08:52:21;;;;;;;10.70;7.72;;;;;;;40.80;24.47;94319.81;5047530;28;20063;-85
2021/07/08 08:54:48;;;;;;;8.80;7.00;;;;;;;41.25;23.94;94332.63;5050105;28;20752;-87
2021/07/08 08:57:14;;;;;;;8.13;7.22;;;;;;;40.79;24.68;94318.28;5055978;28;20046;-87
2021/07/08 08:59:39;;;;;;;11.93;8.07;;;;;;;39.90;25.62;94332.72;5045318;28;20029;-86
2021/07/08 09:02:18;;;;;;;9.65;8.65;;;;;;;38.78;27.40;94306.72;5052025;28;20048;-87
2021/07/08 09:04:47;;;;;;;10.25;8.50;;;;;;;38.59;27.24;94328.00;5049139;28;20697;-85
2021/07/08 09:07:26;;;;;;;12.05;8.75;;;;;;;38.48;26.62;94327.66;5053792;28;20045;-87
2021/07/08 09:09:54;;;;;;;10.00;8.93;;;;;;;38.04;27.61;94329.75;5048569;28;20097;-84
2021/07/08 09:12:23;;;;;;;17.13;8.98;;;;;;;38.19;27.49;94322.47;5056780;28;20028;-86
2021/07/08 09:14:50;;;;;;;12.85;8.80;;;;;;;38.19;27.65;94332.72;5052731;28;20049;-86
2021/07/08 09:17:20;;;;;;;10.10;9.10;;;;;;;38.30;26.99;94314.53;5051560;28;20615;-86
2021/07/08 09:19:47;;;;;;;11.50;8.98;;;;;;;38.36;27.83;94306.44;5048134;28;20512;-84
2021/07/08 09:22:26;;;;;;;9.55;8.52;;;;;;;37.74;28.28;94320.19;5052780;28;20037;-87
2021/07/08 09:24:52;;;;;;;11.02;9.13;;;;;;;37.69;29.10;94318.00;5051826;28;20039;-88
2021/07/08 09:27:17;;;;;;;14.90;9.23;;;;;;;37.28;28.63;94317.09;5057701;28;20024;-86
2021/07/08 09:29:48;;;;;;;9.75;8.80;;;;;;;36.80;30.80;94298.28;5052601;28;20511;-86
2021/07/08 09:32:19;;;;;;;14.13;9.40;;;;;;;36.98;29.69;94320.47;5049225;28;20040;-88
2021/07/08 09:34:54;;;;;;;11.60;9.77;;;;;;;36.60;29.77;94326.06;5049540;28;20123;-86
2021/07/08 09:37:21;;;;;;;;;;;;;;;36.31;29.87;94323.41;5050500;28;20105;-86
2021/07/08 09:39:52;;;;;;;11.05;9.95;;;;;;;36.00;31.17;94320.41;5064611;28;19973;-87
2021/07/08 09:42:42;;;;;;;13.48;10.32;;;;;;;35.77;30.85;94311.69;5049959;28;20111;-88
2021/07/08 09:45:13;;;;;;;11.63;10.38;;;;;;;35.41;31.23;94312.69;5042309;28;20056;-87
2021/07/08 09:47:43;;;;;;;12.35;9.30;;;;;;;35.48;31.10;94295.22;5050335;28;20465;-88
2021/07/08 09:50:11;;;;;;;13.50;10.40;;;;;;;36.03;31.46;94318.75;5046618;28;20039;-86
2021/07/08 09:52:38;;;;;;;13.20;9.90;;;;;;;35.91;31.54;94309.31;5048321;28;20028;-88
2021/07/08 09:55:18;;;;;;;15.38;9.98;;;;;;;35.77;31.82;94309.72;5043260;28;20537;-87
2021/07/08 09:57:45;;;;;;;11.70;9.43;;;;;;;35.26;32.52;94305.25;5052031;28;20052;-84
2021/07/08 10:00:23;;;;;;;10.57;9.57;;;;;;;34.79;33.03;94316.66;5050813;28;20485;-85
2021/07/08 10:02:50;;;;;;;12.88;9.18;;;;;;;34.42;33.87;94284.22;5048283;28;20578;-88
2021/07/08 10:05:17;;;;;;;12.55;10.02;;;;;;;34.24;33.42;94284.66;5047734;28;20373;-86
2021/07/08 10:07:43;;;;;;;12.07;9.43;;;;;;;34.49;33.61;94320.50;5048666;28;20074;-82
2021/07/08 10:10:10;;;;;;;10.70;9.60;;;;;;;34.58;32.99;94323.41;5050416;28;20052;-83
2021/07/08 10:12:37;;;;;;;12.90;10.57;;;;;;;34.65;32.91;94320.50;5054626;28;20099;-85
2021/07/08 10:15:12;;;;;;;10.43;8.45;;;;;;;34.90;32.55;94316.38;5050012;28;20094;-86
2021/07/08 10:17:39;;;;;;;10.98;8.85;;;;;;;35.07;32.90;94306.91;5056040;28;20093;-84
2021/07/08 10:20:07;;;;;;;12.30;9.38;;;;;;;34.84;32.91;94312.63;5055358;28;20480;-84
2021/07/08 10:22:34;;;;;;;10.90;9.73;;;;;;;34.45;32.39;94324.53;5053599;28;20262;-84
2021/07/08 10:24:59;;;;;;;10.73;9.68;;;;;;;34.36;33.02;94297.69;5053719;28;20021;-85
2021/07/08 10:27:26;;;;;;;12.07;9.10;;;;;;;34.41;32.76;94285.41;5056416;28;20039;-85
2021/07/08 10:29:53;;;;;;;12.75;10.63;;;;;;;34.13;33.71;94300.56;5056402;28;20543;-84
2021/07/08 10:32:19;;;;;;;15.55;10.07;;;;;;;34.05;34.52;94310.16;5052736;28;20497;-87
2021/07/08 10:34:48;;;;;;;14.20;10.00;;;;;;;33.76;34.25;94285.34;5053214;28;20047;-91
2021/07/08 10:37:28;;;;;;;12.05;9.27;;;;;;;34.03;34.84;94309.78;5054697;28;20761;-87
2021/07/08 10:39:58;;;;;;;10.52;9.52;;;;;;;33.86;33.29;94268.66;5055234;28;20056;-87
2021/07/08 10:42:53;;;;;;;9.73;8.82;;;;;;;34.07;34.23;94310.47;5055313;28;20043;-85
2021/07/08 10:45:22;;;;;;;12.85;9.63;;;;;;;33.66;34.71;94309.00;5053437;28;20056;-88
2021/07/08 10:47:48;;;;;;;12.20;10.98;;;;;;;33.35;35.53;94316.66;5056548;28;20532;-87
2021/07/08 10:50:35;;;;;;;11.65;10.43;;;;;;;33.19;36.79;94307.59;5072471;28;20093;-86
2021/07/08 10:53:42;;;;;;;13.30;10.35;;;;;;;33.08;35.98;94307.78;5055018;28;20043;-90
2021/07/08 10:56:14;;;;;;;13.40;9.60;;;;;;;33.20;36.89;94314.63;5055901;28;20048;-87
2021/07/08 10:58:45;;;;;;;12.07;10.95;;;;;;;33.34;35.74;94314.34;5057772;28;20489;-85
2021/07/08 11:01:59;;;;;;;11.98;10.05;;;;;;;33.35;35.39;94266.59;5054863;28;20044;-86
2021/07/08 11:04:50;;;;;;;11.25;10.18;;;;;;;33.56;34.72;94304.50;5024881;28;20054;-86
2021/07/08 11:07:21;;;;;;;11.25;10.07;;;;;;;33.38;34.31;94310.34;5058015;28;20500;-86
2021/07/08 11:10:05;;;;;;;10.88;9.48;;;;;;;33.07;34.74;94251.47;5051701;28;20047;-88
2021/07/08 11:12:35;;;;;;;11.30;10.20;;;;;;;33.49;34.32;94312.88;5073499;28;20032;-86
2021/07/08 11:15:06;;;;;;;13.27;10.02;;;;;;;33.23;32.97;94308.31;5055513;28;20265;-86
2021/07/08 11:17:52;;;;;;;9.65;8.68;;;;;;;33.26;33.43;94305.50;5069317;28;20039;-85
2021/07/08 11:20:33;;;;;;;12.75;10.25;;;;;;;33.38;33.43;94315.06;5052246;28;20543;-86
2021/07/08 11:23:30;;;;;;;12.85;10.52;;;;;;;33.08;34.62;94308.56;5070245;28;20068;-86
2021/07/08 11:25:55;;;;;;;15.82;10.85;;;;;;;32.80;34.98;94287.16;5054088;28;20072;-84